createdAt,value
2022-12-18T00:01:21.831Z,86.42
2022-12-18T00:03:49.102Z,86.37
2022-12-18T00:06:16.291Z,86.39
2022-12-18T00:08:43.413Z,86.22
2022-12-18T00:11:11.969Z,86.21
2022-12-18T00:13:38.625Z,86.50
2022-12-18T00:16:06.438Z,86.45
2022-12-18T00:18:33.329Z,86.26
2022-12-18T00:21:03.887Z,86.52
2022-12-18T00:23:30.619Z,87.05
2022-12-18T00:26:04.163Z,87.37
2022-12-18T00:28:30.528Z,87.79
2022-12-18T00:31:16.683Z,87.62
2022-12-18T00:33:43.594Z,87.68
2022-12-18T00:36:14.814Z,88.40
2022-12-18T00:38:41.964Z,88.65
2022-12-18T00:41:09.156Z,88.67
2022-12-18T00:43:37.154Z,88.89
2022-12-18T00:46:04.187Z,89.75
2022-12-18T00:48:31.768Z,89.94
2022-12-18T00:50:58.471Z,89.73
2022-12-18T00:53:24.844Z,89.56
2022-12-18T00:55:51.219Z,89.22
2022-12-18T00:58:17.657Z,89.10
2022-12-18T01:00:44.643Z,88.89
2022-12-18T01:03:13.715Z,88.64
2022-12-18T01:05:41.020Z,88.95
2022-12-18T01:08:07.418Z,88.23
2022-12-18T01:10:33.784Z,88.48
2022-12-18T01:13:00.211Z,88.27
2022-12-18T01:15:26.608Z,88.22
2022-12-18T01:17:53.361Z,88.29
2022-12-18T01:20:20.432Z,88.90
2022-12-18T01:22:46.819Z,88.89
2022-12-18T01:25:13.207Z,88.85
2022-12-18T01:27:39.631Z,88.94
2022-12-18T01:30:06.420Z,89.22
2022-12-18T01:32:32.864Z,88.46
2022-12-18T01:34:59.336Z,88.47
2022-12-18T01:37:25.799Z,88.35
2022-12-18T01:39:55.226Z,88.40
2022-12-18T01:42:22.100Z,88.59
2022-12-18T01:45:07.188Z,88.45
2022-12-18T01:47:42.673Z,87.78
2022-12-18T01:50:09.206Z,87.74
2022-12-18T01:52:36.922Z,87.70
2022-12-18T01:55:05.687Z,87.70
2022-12-18T01:57:32.271Z,87.19
2022-12-18T02:00:02.119Z,86.76
2022-12-18T02:02:30.090Z,87.08
2022-12-18T02:04:56.604Z,87.08
2022-12-18T02:07:25.945Z,86.92
2022-12-18T02:10:05.073Z,86.10
2022-12-18T02:12:37.844Z,86.60
2022-12-18T02:15:23.024Z,87.14
2022-12-18T02:17:58.784Z,86.25
2022-12-18T02:20:37.535Z,85.95
2022-12-18T02:23:11.321Z,86.30
2022-12-18T02:25:52.951Z,85.29
2022-12-18T02:28:21.154Z,85.67
2022-12-18T02:30:50.051Z,85.34
2022-12-18T02:33:16.940Z,85.27
2022-12-18T02:35:44.493Z,84.97
2022-12-18T02:38:12.879Z,84.14
2022-12-18T02:40:39.855Z,83.88
2022-12-18T02:43:10.248Z,84.09
2022-12-18T02:45:36.925Z,83.43
2022-12-18T02:48:03.481Z,83.66
2022-12-18T02:50:34.897Z,84.10
2022-12-18T02:53:15.973Z,83.49
2022-12-18T02:55:51.487Z,83.16
2022-12-18T02:58:20.926Z,82.95
2022-12-18T03:00:47.294Z,82.90
2022-12-18T03:03:19.935Z,83.12
2022-12-18T03:05:54.915Z,82.99
2022-12-18T03:08:25.808Z,82.88
2022-12-18T03:11:05.681Z,82.75
2022-12-18T03:13:32.089Z,82.58
2022-12-18T03:16:00.812Z,82.69
2022-12-18T03:18:34.283Z,82.44
2022-12-18T03:21:04.668Z,82.11
2022-12-18T03:23:35.131Z,82.77
2022-12-18T03:26:07.620Z,82.60
2022-12-18T03:28:37.553Z,82.37
2022-12-18T03:31:06.552Z,82.47
2022-12-18T03:33:38.836Z,81.89
2022-12-18T03:36:05.738Z,81.82
2022-12-18T03:38:32.106Z,81.89
2022-12-18T03:41:25.061Z,82.39
2022-12-18T03:44:10.234Z,82.17
2022-12-18T03:46:45.449Z,82.23
2022-12-18T03:49:27.288Z,81.80
2022-12-18T03:51:56.171Z,81.77
2022-12-18T03:54:23.160Z,81.94
2022-12-18T03:56:51.763Z,81.49
2022-12-18T03:59:20.086Z,81.55
2022-12-18T04:01:48.597Z,81.33
2022-12-18T04:04:16.493Z,81.23
2022-12-18T04:06:44.469Z,81.60
2022-12-18T04:09:11.002Z,81.54
2022-12-18T04:11:37.451Z,81.04
2022-12-18T04:14:07.182Z,81.59
2022-12-18T04:16:33.997Z,81.71
2022-12-18T04:19:00.373Z,81.51
2022-12-18T04:21:26.870Z,81.01
2022-12-18T04:23:53.335Z,81.48
2022-12-18T04:26:19.901Z,81.85
2022-12-18T04:28:46.305Z,81.38
2022-12-18T04:31:12.854Z,81.45
2022-12-18T04:33:39.722Z,81.61
2022-12-18T04:36:06.627Z,81.71
2022-12-18T04:38:33.512Z,81.61
2022-12-18T04:40:59.957Z,81.51
2022-12-18T04:43:26.396Z,81.56
2022-12-18T04:45:52.801Z,81.20
2022-12-18T04:48:19.344Z,81.25
2022-12-18T04:50:45.996Z,81.31
2022-12-18T04:53:12.362Z,81.61
2022-12-18T04:55:38.720Z,80.98
2022-12-18T04:58:05.334Z,81.68
2022-12-18T05:00:31.751Z,81.88
2022-12-18T05:02:58.288Z,81.88
2022-12-18T05:05:24.840Z,81.73
2022-12-18T05:07:51.217Z,81.68
2022-12-18T05:10:17.755Z,81.79
2022-12-18T05:12:59.382Z,82.11
2022-12-18T05:15:28.584Z,81.03
2022-12-18T05:17:55.397Z,81.70
2022-12-18T05:20:21.925Z,81.63
2022-12-18T05:22:48.313Z,81.55
2022-12-18T05:25:14.707Z,81.42
2022-12-18T05:27:41.144Z,81.77
2022-12-18T05:30:08.087Z,81.64
2022-12-18T05:32:34.497Z,81.72
2022-12-18T05:35:00.998Z,81.41
2022-12-18T05:37:27.390Z,82.15
2022-12-18T05:39:53.807Z,82.15
2022-12-18T05:42:20.163Z,81.78
2022-12-18T05:44:46.569Z,81.90
2022-12-18T05:47:12.990Z,81.21
2022-12-18T05:49:39.430Z,81.63
2022-12-18T05:52:06.165Z,81.72
2022-12-18T05:54:32.574Z,81.19
2022-12-18T05:56:59.231Z,81.62
2022-12-18T05:59:25.631Z,82.15
2022-12-18T06:01:52.676Z,81.62
2022-12-18T06:04:19.146Z,82.29
2022-12-18T06:06:45.703Z,81.71
2022-12-18T06:09:12.923Z,82.40
2022-12-18T06:11:39.572Z,82.14
2022-12-18T06:14:07.125Z,81.63
2022-12-18T06:16:33.746Z,82.11
2022-12-18T06:19:00.836Z,82.46
2022-12-18T06:21:28.257Z,82.45
2022-12-18T06:23:54.899Z,82.59
2022-12-18T06:26:27.656Z,82.24
2022-12-18T06:28:54.665Z,81.88
2022-12-18T06:31:21.104Z,82.16
2022-12-18T06:33:47.530Z,81.61
2022-12-18T06:36:14.574Z,82.19
2022-12-18T06:38:42.436Z,81.96
2022-12-18T06:41:13.874Z,82.03
2022-12-18T06:43:40.693Z,82.05
2022-12-18T06:46:07.745Z,81.63
2022-12-18T06:48:34.305Z,80.89
2022-12-18T06:51:01.036Z,81.60
2022-12-18T06:53:27.618Z,81.53
2022-12-18T06:55:54.300Z,81.31
2022-12-18T06:58:20.712Z,81.10
2022-12-18T07:00:47.595Z,81.31
2022-12-18T07:03:14.099Z,80.82
2022-12-18T07:05:41.309Z,79.98
2022-12-18T07:08:07.778Z,80.19
2022-12-18T07:10:34.550Z,80.81
2022-12-18T07:13:00.919Z,80.80
2022-12-18T07:15:27.279Z,81.02
2022-12-18T07:17:53.639Z,80.41
2022-12-18T07:20:20.010Z,80.95
2022-12-18T07:22:46.645Z,80.96
2022-12-18T07:25:13.021Z,80.90
2022-12-18T07:27:39.432Z,81.02
2022-12-18T07:30:06.171Z,81.31
2022-12-18T07:32:32.586Z,81.30
2022-12-18T07:34:58.976Z,81.07
2022-12-18T07:37:25.355Z,81.59
2022-12-18T07:39:51.748Z,81.30
2022-12-18T07:42:33.462Z,81.58
2022-12-18T07:45:01.358Z,81.61
2022-12-18T07:47:28.261Z,81.43
2022-12-18T07:49:56.019Z,81.64
2022-12-18T07:52:26.101Z,81.09
2022-12-18T07:54:52.816Z,80.91
2022-12-18T07:57:48.432Z,80.48
2022-12-18T08:00:05.973Z,80.70
2022-12-18T08:02:32.911Z,81.14
2022-12-18T08:04:59.595Z,80.71
2022-12-18T08:07:25.961Z,80.52
2022-12-18T08:09:52.356Z,80.44
2022-12-18T08:12:18.742Z,80.52
2022-12-18T08:14:45.104Z,80.40
2022-12-18T08:17:11.528Z,80.66
2022-12-18T08:19:37.999Z,80.48
2022-12-18T08:22:04.372Z,80.75
2022-12-18T08:24:30.772Z,80.54
2022-12-18T08:27:27.953Z,80.82
2022-12-18T08:29:44.642Z,80.12
2022-12-18T08:32:11.104Z,80.64
2022-12-18T08:34:37.608Z,80.61
2022-12-18T08:37:04.039Z,80.87
2022-12-18T08:39:30.465Z,79.57
2022-12-18T08:42:15.566Z,79.73
2022-12-18T08:44:42.249Z,80.61
2022-12-18T08:47:08.981Z,79.98
2022-12-18T08:49:35.986Z,80.37
2022-12-18T08:52:03.761Z,79.85
2022-12-18T08:54:30.263Z,79.50
2022-12-18T08:56:56.624Z,79.87
2022-12-18T08:59:24.172Z,79.11
2022-12-18T09:01:54.646Z,79.67
2022-12-18T09:04:21.118Z,79.87
2022-12-18T09:06:47.739Z,79.51
2022-12-18T09:09:14.339Z,80.29
2022-12-18T09:11:40.743Z,79.96
2022-12-18T09:14:07.167Z,80.63
2022-12-18T09:16:35.908Z,80.54
2022-12-18T09:19:03.521Z,80.11
2022-12-18T09:21:31.381Z,80.25
2022-12-18T09:23:59.112Z,79.97
2022-12-18T09:26:26.312Z,80.32
2022-12-18T09:28:52.928Z,80.39
2022-12-18T09:31:20.616Z,80.69
2022-12-18T09:33:47.107Z,81.29
2022-12-18T09:36:15.317Z,81.04
2022-12-18T09:38:42.202Z,81.45
2022-12-18T09:41:27.659Z,81.94
2022-12-18T09:43:58.056Z,82.04
2022-12-18T09:46:27.180Z,81.99
2022-12-18T09:48:56.602Z,82.14
2022-12-18T09:51:29.768Z,82.30
2022-12-18T09:54:00.093Z,81.94
2022-12-18T09:56:29.352Z,81.81
2022-12-18T09:59:03.100Z,81.79
2022-12-18T10:01:38.820Z,82.14
2022-12-18T10:04:10.409Z,82.24
2022-12-18T10:06:40.652Z,81.68
2022-12-18T10:09:25.070Z,81.96
2022-12-18T10:12:10.423Z,81.82
2022-12-18T10:14:52.238Z,82.01
2022-12-18T10:17:27.227Z,82.02
2022-12-18T10:19:56.966Z,81.67
2022-12-18T10:22:52.619Z,82.10
2022-12-18T10:25:19.675Z,81.76
2022-12-18T10:27:46.179Z,82.13
2022-12-18T10:30:16.939Z,81.84
2022-12-18T10:32:43.623Z,82.12
2022-12-18T10:35:18.968Z,82.05
2022-12-18T10:38:01.936Z,81.67
2022-12-18T10:40:28.400Z,81.95
2022-12-18T10:43:12.627Z,81.98
2022-12-18T10:45:39.373Z,81.93
2022-12-18T10:48:06.074Z,81.97
2022-12-18T10:51:08.667Z,81.74
2022-12-18T10:53:22.797Z,81.81
2022-12-18T10:55:49.668Z,81.57
2022-12-18T10:58:38.502Z,81.36
2022-12-18T11:01:09.677Z,81.39
2022-12-18T11:03:37.409Z,81.04
2022-12-18T11:06:08.569Z,80.86
2022-12-18T11:08:35.274Z,81.08
2022-12-18T11:11:01.958Z,81.67
2022-12-18T11:13:30.257Z,81.18
2022-12-18T11:15:56.845Z,81.46
2022-12-18T11:18:27.222Z,81.39
2022-12-18T11:21:14.366Z,81.14
2022-12-18T11:23:50.050Z,80.80
2022-12-18T11:26:16.633Z,81.14
2022-12-18T11:28:45.534Z,80.99
2022-12-18T11:31:18.409Z,80.97
2022-12-18T11:34:11.869Z,81.14
2022-12-18T11:36:37.444Z,81.51
2022-12-18T11:39:11.910Z,81.48
2022-12-18T11:42:06.387Z,80.92
2022-12-18T11:44:37.713Z,80.94
2022-12-18T11:47:14.657Z,80.78
2022-12-18T11:49:42.590Z,80.50
2022-12-18T11:52:15.884Z,80.38
2022-12-18T11:54:42.298Z,80.27
2022-12-18T11:57:14.467Z,80.18
2022-12-18T11:59:50.579Z,79.91
2022-12-18T12:02:35.583Z,79.97
2022-12-18T12:05:05.087Z,79.87
2022-12-18T12:07:39.737Z,79.86
2022-12-18T12:10:06.144Z,79.84
2022-12-18T12:12:48.677Z,80.18
2022-12-18T12:15:36.830Z,80.13
2022-12-18T12:18:16.377Z,79.97
2022-12-18T12:21:01.766Z,79.54
2022-12-18T12:23:34.927Z,80.40
2022-12-18T12:26:07.022Z,80.21
2022-12-18T12:28:51.893Z,80.37
2022-12-18T12:31:37.016Z,80.21
2022-12-18T12:34:17.528Z,80.28
2022-12-18T12:37:07.269Z,80.34
2022-12-18T12:39:36.415Z,80.37
2022-12-18T12:42:23.816Z,79.94
2022-12-18T12:44:56.399Z,80.05
2022-12-18T12:47:34.731Z,79.89
2022-12-18T12:50:03.601Z,80.24
2022-12-18T12:52:36.431Z,80.32
2022-12-18T12:55:07.972Z,80.34
2022-12-18T12:57:42.958Z,80.68
2022-12-18T13:00:17.525Z,80.64
2022-12-18T13:02:46.977Z,80.60
2022-12-18T13:05:43.166Z,81.09
2022-12-18T13:08:22.622Z,81.12
2022-12-18T13:10:50.669Z,81.09
2022-12-18T13:13:22.807Z,81.29
2022-12-18T13:16:04.473Z,81.46
2022-12-18T13:18:31.054Z,81.07
2022-12-18T13:21:01.620Z,81.40
2022-12-18T13:23:32.080Z,81.28
2022-12-18T13:26:07.641Z,81.27
2022-12-18T13:28:37.275Z,81.47
2022-12-18T13:31:03.960Z,81.57
2022-12-18T13:33:30.355Z,81.36
2022-12-18T13:36:03.137Z,81.44
2022-12-18T13:38:32.480Z,81.46
2022-12-18T13:41:02.237Z,81.12
2022-12-18T13:43:39.939Z,81.03
2022-12-18T13:46:25.633Z,80.75
2022-12-18T13:48:52.622Z,80.63
2022-12-18T13:51:20.637Z,80.56
2022-12-18T13:53:52.967Z,80.62
2022-12-18T13:56:22.362Z,80.57
2022-12-18T13:59:08.116Z,80.82
2022-12-18T14:01:34.630Z,80.29
2022-12-18T14:04:19.312Z,79.79
2022-12-18T14:06:46.734Z,79.84
2022-12-18T14:09:21.565Z,80.24
2022-12-18T14:11:49.434Z,80.20
2022-12-18T14:14:17.548Z,79.54
2022-12-18T14:16:44.013Z,79.32
2022-12-18T14:19:15.898Z,79.47
2022-12-18T14:21:46.470Z,79.47
2022-12-18T14:24:16.682Z,79.49
2022-12-18T14:26:45.586Z,78.93
2022-12-18T14:29:24.362Z,78.87
2022-12-18T14:32:05.971Z,78.94
2022-12-18T14:34:32.949Z,78.92
2022-12-18T14:36:59.575Z,78.87
2022-12-18T14:39:26.499Z,79.26
2022-12-18T14:41:54.148Z,79.24
2022-12-18T14:44:22.333Z,79.40
2022-12-18T14:46:50.515Z,79.38
2022-12-18T14:49:25.723Z,79.60
2022-12-18T14:51:54.106Z,79.50
2022-12-18T14:54:21.410Z,79.56
2022-12-18T14:56:52.811Z,79.57
2022-12-18T14:59:24.762Z,79.90
2022-12-18T15:02:00.563Z,80.24
2022-12-18T15:04:40.217Z,80.20
2022-12-18T15:07:19.301Z,80.02
2022-12-18T15:10:01.444Z,79.85
2022-12-18T15:12:42.028Z,79.49
2022-12-18T15:15:28.263Z,80.06
2022-12-18T15:17:58.758Z,80.05
2022-12-18T15:20:25.132Z,79.67
2022-12-18T15:22:51.579Z,79.91
2022-12-18T15:25:28.653Z,79.79
2022-12-18T15:27:55.130Z,79.84
2022-12-18T15:30:22.771Z,79.62
2022-12-18T15:32:50.028Z,79.16
2022-12-18T15:35:21.300Z,78.94
2022-12-18T15:37:48.157Z,79.32
2022-12-18T15:40:16.103Z,79.37
2022-12-18T15:43:03.172Z,79.26
2022-12-18T15:45:29.714Z,79.81
2022-12-18T15:47:56.127Z,79.56
2022-12-18T15:50:22.840Z,79.28
2022-12-18T15:52:50.896Z,79.65
2022-12-18T15:55:37.724Z,79.25
2022-12-18T15:58:05.348Z,78.95
2022-12-18T16:00:32.625Z,78.53
2022-12-18T16:02:59.223Z,78.78
2022-12-18T16:05:27.154Z,78.83
2022-12-18T16:07:53.702Z,78.44
2022-12-18T16:10:20.282Z,78.52
2022-12-18T16:12:46.934Z,78.38
2022-12-18T16:15:15.302Z,78.21
2022-12-18T16:17:44.238Z,78.47
2022-12-18T16:20:30.531Z,78.65
2022-12-18T16:22:56.989Z,77.96
2022-12-18T16:25:27.379Z,77.68
2022-12-18T16:27:56.052Z,78.45
2022-12-18T16:30:23.787Z,77.76
2022-12-18T16:32:50.637Z,78.37
2022-12-18T16:35:17.422Z,77.64
2022-12-18T16:37:44.403Z,77.54
2022-12-18T16:40:12.246Z,77.08
2022-12-18T16:42:39.686Z,77.13
2022-12-18T16:45:07.144Z,76.93
2022-12-18T16:47:33.703Z,76.83
2022-12-18T16:50:00.123Z,77.09
2022-12-18T16:52:26.671Z,76.12
2022-12-18T16:54:53.105Z,76.68
2022-12-18T16:57:21.516Z,76.07
2022-12-18T16:59:51.144Z,76.41
2022-12-18T17:02:23.423Z,76.27
2022-12-18T17:04:50.593Z,76.31
2022-12-18T17:07:16.989Z,75.72
2022-12-18T17:09:43.361Z,75.56
2022-12-18T17:12:09.751Z,75.10
2022-12-18T17:14:36.451Z,74.93
2022-12-18T17:19:49.818Z,75.57
2022-12-18T17:22:16.293Z,74.95
2022-12-18T17:24:42.848Z,74.87
2022-12-18T17:27:09.214Z,74.93
2022-12-18T17:29:35.722Z,75.03
2022-12-18T17:32:02.159Z,75.18
2022-12-18T17:34:28.669Z,74.64
2022-12-18T17:36:56.397Z,74.64
2022-12-18T17:39:22.806Z,74.59
2022-12-18T17:41:49.766Z,74.44
2022-12-18T17:44:16.639Z,74.33
2022-12-18T17:46:43.658Z,74.37
2022-12-18T17:49:10.440Z,74.28
2022-12-18T17:51:36.866Z,74.37
2022-12-18T17:54:03.315Z,74.50
2022-12-18T17:56:29.807Z,74.54
2022-12-18T17:58:56.205Z,74.32
2022-12-18T18:01:24.271Z,74.00
2022-12-18T18:03:53.521Z,74.15
2022-12-18T18:06:20.124Z,73.78
2022-12-18T18:08:46.514Z,73.54
2022-12-18T18:11:33.502Z,73.14
2022-12-18T18:14:03.015Z,73.37
2022-12-18T18:16:29.407Z,73.91
2022-12-18T18:19:03.280Z,73.39
2022-12-18T18:21:30.022Z,73.25
2022-12-18T18:23:59.023Z,73.44
2022-12-18T18:26:27.103Z,72.63
2022-12-18T18:28:55.590Z,72.58
2022-12-18T18:31:25.163Z,72.85
2022-12-18T18:33:51.894Z,72.62
2022-12-18T18:36:18.316Z,73.02
2022-12-18T18:38:48.389Z,73.22
2022-12-18T18:41:15.659Z,72.65
2022-12-18T18:43:42.461Z,73.25
2022-12-18T18:46:11.368Z,72.89
2022-12-18T18:48:37.950Z,73.07
2022-12-18T18:51:08.998Z,72.50
2022-12-18T18:53:41.498Z,72.57
2022-12-18T18:58:55.953Z,72.02
2022-12-18T19:01:23.062Z,72.49
2022-12-18T19:03:49.669Z,72.35
2022-12-18T19:06:17.623Z,72.96
2022-12-18T19:08:44.555Z,72.68
2022-12-18T19:11:36.068Z,72.38
2022-12-18T19:14:04.951Z,73.48
2022-12-18T19:16:32.047Z,73.26
2022-12-18T19:19:01.797Z,72.80
2022-12-18T19:21:28.928Z,72.99
2022-12-18T19:23:57.894Z,72.06
2022-12-18T19:26:28.034Z,72.54
2022-12-18T19:28:54.784Z,72.94
2022-12-18T19:31:25.402Z,72.98
2022-12-18T19:33:53.517Z,71.72
2022-12-18T19:36:21.673Z,71.81
2022-12-18T19:38:48.735Z,71.95
2022-12-18T19:41:15.622Z,72.78
2022-12-18T19:43:42.442Z,73.16
2022-12-18T19:46:10.939Z,72.38
2022-12-18T19:48:37.454Z,72.95
2022-12-18T19:51:04.738Z,72.20
2022-12-18T19:53:31.126Z,71.80
2022-12-18T19:55:57.573Z,71.98
2022-12-18T19:58:23.963Z,72.73
2022-12-18T20:00:51.313Z,72.66
2022-12-18T20:03:27.140Z,71.72
2022-12-18T20:06:07.553Z,71.96
2022-12-18T20:08:33.908Z,72.55
2022-12-18T20:11:00.298Z,71.85
2022-12-18T20:13:26.647Z,71.88
2022-12-18T20:15:54.209Z,72.46
2022-12-18T20:18:20.580Z,72.02
2022-12-18T20:20:47.235Z,72.23
2022-12-18T20:23:15.683Z,70.86
2022-12-18T20:25:42.090Z,70.49
2022-12-18T20:28:08.485Z,70.78
2022-12-18T20:30:34.882Z,71.95
2022-12-18T20:33:01.281Z,71.08
2022-12-18T20:35:28.786Z,70.98
2022-12-18T20:37:55.757Z,71.03
2022-12-18T20:40:23.309Z,70.84
2022-12-18T20:42:49.727Z,71.10
2022-12-18T20:45:16.363Z,70.95
2022-12-18T20:47:43.945Z,70.28
2022-12-18T20:50:10.490Z,70.34
2022-12-18T20:52:36.910Z,70.26
2022-12-18T20:55:04.204Z,70.70
2022-12-18T20:57:30.670Z,70.99
2022-12-18T20:59:57.088Z,70.65
2022-12-18T21:02:23.552Z,70.93
2022-12-18T21:04:50.052Z,70.97
2022-12-18T21:07:16.664Z,70.70
2022-12-18T21:09:43.033Z,70.93
2022-12-18T21:12:33.377Z,70.40
2022-12-18T21:15:04.518Z,69.94
2022-12-18T21:17:31.128Z,69.60
2022-12-18T21:20:00.946Z,70.60
2022-12-18T21:22:28.320Z,69.99
2022-12-18T21:24:54.725Z,70.30
2022-12-18T21:27:21.084Z,70.23
2022-12-18T21:29:47.501Z,70.19
2022-12-18T21:32:14.194Z,70.47
2022-12-18T21:34:46.016Z,69.74
2022-12-18T21:37:14.326Z,70.22
2022-12-18T21:39:40.703Z,69.98
2022-12-18T21:42:25.986Z,69.90
2022-12-18T21:44:52.402Z,69.88
2022-12-18T21:47:22.655Z,69.50
2022-12-18T21:49:50.546Z,69.97
2022-12-18T21:52:16.987Z,69.71
2022-12-18T21:54:43.377Z,68.93
2022-12-18T21:57:10.992Z,70.14
2022-12-18T21:59:38.477Z,69.55
2022-12-18T22:02:11.070Z,68.80
2022-12-18T22:04:37.594Z,69.32
2022-12-18T22:07:05.170Z,70.29
2022-12-18T22:09:31.815Z,69.71
2022-12-18T22:11:58.595Z,70.09
2022-12-18T22:14:25.093Z,69.55
2022-12-18T22:16:52.453Z,70.03
2022-12-18T22:19:19.894Z,68.90
2022-12-18T22:21:47.414Z,69.45
2022-12-18T22:24:15.211Z,69.38
2022-12-18T22:26:41.630Z,69.33
2022-12-18T22:29:29.944Z,70.00
2022-12-18T22:31:57.915Z,69.48
2022-12-18T22:34:24.365Z,69.41
2022-12-18T22:36:50.861Z,68.94
2022-12-18T22:39:18.756Z,69.41
2022-12-18T22:41:45.777Z,68.86
2022-12-18T22:44:12.239Z,68.97
2022-12-18T22:46:46.733Z,68.97
2022-12-18T22:49:17.525Z,68.80
2022-12-18T22:51:44.330Z,68.55
2022-12-18T22:54:10.877Z,69.03
2022-12-18T22:56:37.345Z,68.75
2022-12-18T22:59:04.207Z,68.43
2022-12-18T23:01:31.296Z,68.54
2022-12-18T23:03:59.263Z,69.14
2022-12-18T23:06:26.341Z,69.24
2022-12-18T23:08:56.189Z,68.43
2022-12-18T23:11:22.659Z,68.94
2022-12-18T23:13:49.075Z,68.85
2022-12-18T23:16:17.139Z,68.37
2022-12-18T23:18:43.693Z,68.83
2022-12-18T23:21:14.463Z,69.16
2022-12-18T23:23:42.100Z,68.84
2022-12-18T23:26:13.438Z,68.86
2022-12-18T23:28:40.316Z,68.22
2022-12-18T23:31:08.457Z,68.27
2022-12-18T23:33:34.889Z,68.67
2022-12-18T23:36:01.875Z,68.40
2022-12-18T23:38:28.996Z,68.58
2022-12-18T23:40:56.520Z,68.67
2022-12-18T23:43:23.736Z,68.58
2022-12-18T23:45:55.509Z,68.03
2022-12-18T23:48:22.563Z,68.06
2022-12-18T23:50:48.953Z,68.26
2022-12-18T23:53:15.381Z,68.40
2022-12-18T23:55:43.161Z,68.01
2022-12-18T23:58:19.649Z,68.33
